• Join FlightAware (Why Join?)
  • Login
  • US Flag 
09:50PM EDT


 

Airport Tracker/Info


-or-


 

Live Flight TrackerFlight Track Log ✈ N989LA ✈ 13-Jun-2013 ✈ KAUS - KIWS

Flight Track Log - Related Links

Times and Time Zones

All times are in EDT time to prevent confusion due to time zone crossing. See the N989LA flight status page for this flight to view local times or setup timezone preferences in your user account.

Time Position Orientation Groundspeed Altitude Reporting Facility
EDT Latitude Longitude Course Direction KTS MPH feet Rate Location/Type
12:17PM 30.1536 -97.5411 99° East 187 215 5,000  Level Houston Center
12:18PM 30.1661 -97.4839 76° East 186 214 6,900 1,620 Climbing Houston Center
12:19PM 30.1931 -97.4297 60° Northeast 197 227 8,400 900 Climbing Houston Center
12:20PM 30.2225 -97.3678 61° Northeast 208 239 8,800 180 Climbing Houston Center
12:21PM 30.3667 -97.3678 90° East  Level FlightAware Approximate
12:21PM 30.2572 -97.2928 62° Northeast 245 282 8,800  Level Houston Center
12:22PM 30.3642 -97.2997 99° East  Level FlightAware Approximate
12:22PM 30.2972 -97.2061 62° Northeast 261 300 8,900  Level Houston Center
12:23PM 30.3283 -97.1369 62° Northeast 244 281 10,600 1,740 Climbing Houston Center
12:24PM 30.3528 -97.0822 63° Northeast 198 228 12,600 1,800 Climbing Houston Center
12:25PM 30.3508 -97.0303 92° East 162 186 14,400 1,020 Climbing Houston Center
12:26PM 30.3469 -96.9711 94° East 180 207 14,800 180 Climbing Houston Center
12:27PM 30.3408 -96.8972 95° East 225 259 14,800 -360 Level Houston Center
12:28PM 30.3372 -96.8100 93° East 262 302 14,100 -960 Descending Houston Center
12:29PM 30.3303 -96.7092 95° East 275 316 12,900 -1,620 Descending Houston Center
12:30PM 30.3244 -96.6156 94° East 287 330 10,700 -1,980 Descending Houston Center
12:31PM 30.3172 -96.5192 95° East 296 341 8,900 -1,500 Descending Houston Center
12:31PM 30.3175 -96.4906 89° East 298 343 8,800 -120 Descending Houston Center
12:32PM 30.3161 -96.4306 92° East 278 320 8,800 -420 Level Houston Center
12:33PM 30.3019 -96.3483 101° East 265 305 8,100 -1,080 Descending Houston Center
12:34PM 30.2514 -96.2489 120° Southeast 282 325 6,500 -1,260 Descending Houston Center
12:35PM 30.2161 -96.1806 121° Southeast 277 319 5,500 -900 Descending Houston Center
12:36PM 30.1767 -96.1053 121° Southeast 273 314 4,800 -360 Descending Houston Center
12:37PM 30.1361 -96.0300 122° Southeast 253 291 4,800  Level Houston Center
12:38PM 30.0983 -95.9572 121° Southeast 253 291 4,800 -300 Level Houston Center
12:39PM 30.0494 -95.9006 135° Southeast 251 289 4,200 -900 Descending Houston Center
12:40PM 30.0086 -95.8419 129° Southeast 224 258 3,000 -1,140 Descending Houston Center
12:41PM 29.9622 -95.7919 137° Southeast 225 259 1,900 -1,140 Descending Houston Center